sensor_id;sensor_type;location;lat;lon;timestamp;temperature;humidity
18163;DHT22;9206;50.994;4.538;2023-09-12T00:01:09;19.50;99.90
18163;DHT22;9206;50.994;4.538;2023-09-12T00:03:57;19.40;99.90
18163;DHT22;9206;50.994;4.538;2023-09-12T00:06:50;19.40;99.90
18163;DHT22;9206;50.994;4.538;2023-09-12T00:09:37;19.40;99.90
18163;DHT22;9206;50.994;4.538;2023-09-12T00:12:26;19.30;99.90
18163;DHT22;9206;50.994;4.538;2023-09-12T00:15:15;19.40;99.90
18163;DHT22;9206;50.994;4.538;2023-09-12T00:18:10;19.40;99.90
18163;DHT22;9206;50.994;4.538;2023-09-12T00:21:00;19.30;99.90
18163;DHT22;9206;50.994;4.538;2023-09-12T00:23:55;19.30;99.90
18163;DHT22;9206;50.994;4.538;2023-09-12T00:26:46;19.30;99.90
18163;DHT22;9206;50.994;4.538;2023-09-12T00:29:34;19.30;99.90
18163;DHT22;9206;50.994;4.538;2023-09-12T00:32:22;19.30;99.90
18163;DHT22;9206;50.994;4.538;2023-09-12T00:35:11;19.30;99.90
18163;DHT22;9206;50.994;4.538;2023-09-12T00:38:00;19.30;99.90
18163;DHT22;9206;50.994;4.538;2023-09-12T00:40:54;19.30;99.90
18163;DHT22;9206;50.994;4.538;2023-09-12T00:43:44;19.20;99.90
18163;DHT22;9206;50.994;4.538;2023-09-12T00:46:32;19.20;99.90
18163;DHT22;9206;50.994;4.538;2023-09-12T00:49:27;19.20;99.90
18163;DHT22;9206;50.994;4.538;2023-09-12T00:52:19;19.20;99.90
18163;DHT22;9206;50.994;4.538;2023-09-12T00:55:09;19.20;99.90
18163;DHT22;9206;50.994;4.538;2023-09-12T00:58:24;19.30;99.90
18163;DHT22;9206;50.994;4.538;2023-09-12T01:01:13;19.20;99.90
18163;DHT22;9206;50.994;4.538;2023-09-12T01:04:01;19.20;99.90
18163;DHT22;9206;50.994;4.538;2023-09-12T01:06:55;19.20;99.90
18163;DHT22;9206;50.994;4.538;2023-09-12T01:09:44;19.20;99.90
18163;DHT22;9206;50.994;4.538;2023-09-12T01:12:35;19.20;99.90
18163;DHT22;9206;50.994;4.538;2023-09-12T01:15:29;19.10;99.90
18163;DHT22;9206;50.994;4.538;2023-09-12T01:18:20;19.00;99.90
18163;DHT22;9206;50.994;4.538;2023-09-12T01:25:00;19.00;99.90
18163;DHT22;9206;50.994;4.538;2023-09-12T01:28:01;18.90;99.90
18163;DHT22;9206;50.994;4.538;2023-09-12T01:30:55;18.80;99.90
18163;DHT22;9206;50.994;4.538;2023-09-12T01:33:46;18.80;99.90
18163;DHT22;9206;50.994;4.538;2023-09-12T01:36:36;18.70;99.90
18163;DHT22;9206;50.994;4.538;2023-09-12T01:39:24;18.70;99.90
18163;DHT22;9206;50.994;4.538;2023-09-12T01:42:15;18.60;99.90
18163;DHT22;9206;50.994;4.538;2023-09-12T01:45:15;18.50;99.90
18163;DHT22;9206;50.994;4.538;2023-09-12T01:48:14;18.50;99.90
18163;DHT22;9206;50.994;4.538;2023-09-12T01:51:12;18.40;99.90
18163;DHT22;9206;50.994;4.538;2023-09-12T01:54:00;18.40;99.90
18163;DHT22;9206;50.994;4.538;2023-09-12T01:56:51;18.40;99.90
18163;DHT22;9206;50.994;4.538;2023-09-12T01:59:45;18.30;99.90
18163;DHT22;9206;50.994;4.538;2023-09-12T02:02:40;18.30;99.90
18163;DHT22;9206;50.994;4.538;2023-09-12T02:05:31;18.30;99.90
18163;DHT22;9206;50.994;4.538;2023-09-12T02:08:20;18.30;99.90
18163;DHT22;9206;50.994;4.538;2023-09-12T02:11:09;18.30;99.90
18163;DHT22;9206;50.994;4.538;2023-09-12T02:14:00;18.30;99.90
18163;DHT22;9206;50.994;4.538;2023-09-12T02:16:54;18.20;99.90
18163;DHT22;9206;50.994;4.538;2023-09-12T02:19:48;18.20;99.90
18163;DHT22;9206;50.994;4.538;2023-09-12T02:22:38;18.10;99.90
18163;DHT22;9206;50.994;4.538;2023-09-12T02:25:29;18.10;99.90
18163;DHT22;9206;50.994;4.538;2023-09-12T02:28:18;18.10;99.90
18163;DHT22;9206;50.994;4.538;2023-09-12T02:31:10;18.10;99.90
18163;DHT22;9206;50.994;4.538;2023-09-12T02:34:03;18.10;99.90
18163;DHT22;9206;50.994;4.538;2023-09-12T02:36:55;18.10;99.90
18163;DHT22;9206;50.994;4.538;2023-09-12T02:39:48;18.10;99.90
18163;DHT22;9206;50.994;4.538;2023-09-12T02:42:37;18.10;99.90
18163;DHT22;9206;50.994;4.538;2023-09-12T02:45:26;18.20;99.90
18163;DHT22;9206;50.994;4.538;2023-09-12T02:48:13;18.30;99.90
18163;DHT22;9206;50.994;4.538;2023-09-12T02:51:07;18.40;99.90
18163;DHT22;9206;50.994;4.538;2023-09-12T02:53:56;18.40;99.90
18163;DHT22;9206;50.994;4.538;2023-09-12T02:56:43;18.50;99.90
18163;DHT22;9206;50.994;4.538;2023-09-12T02:59:33;18.50;99.90
18163;DHT22;9206;50.994;4.538;2023-09-12T03:02:21;18.60;99.90
18163;DHT22;9206;50.994;4.538;2023-09-12T03:05:09;18.60;99.90
18163;DHT22;9206;50.994;4.538;2023-09-12T03:08:00;18.60;99.90
18163;DHT22;9206;50.994;4.538;2023-09-12T03:10:54;18.70;99.90
18163;DHT22;9206;50.994;4.538;2023-09-12T03:13:43;18.80;99.90
18163;DHT22;9206;50.994;4.538;2023-09-12T03:16:36;18.90;99.90
18163;DHT22;9206;50.994;4.538;2023-09-12T03:19:25;18.90;99.90
18163;DHT22;9206;50.994;4.538;2023-09-12T03:22:17;19.00;99.90
18163;DHT22;9206;50.994;4.538;2023-09-12T03:25:10;19.00;99.90
18163;DHT22;9206;50.994;4.538;2023-09-12T03:28:00;19.00;99.90
18163;DHT22;9206;50.994;4.538;2023-09-12T03:30:51;19.00;99.90
18163;DHT22;9206;50.994;4.538;2023-09-12T03:33:41;19.00;99.90
18163;DHT22;9206;50.994;4.538;2023-09-12T03:36:39;19.00;99.90
18163;DHT22;9206;50.994;4.538;2023-09-12T03:39:27;19.10;99.90
18163;DHT22;9206;50.994;4.538;2023-09-12T03:42:20;19.10;99.90
18163;DHT22;9206;50.994;4.538;2023-09-12T03:45:10;19.10;99.90
18163;DHT22;9206;50.994;4.538;2023-09-12T03:47:59;19.10;99.90
18163;DHT22;9206;50.994;4.538;2023-09-12T03:50:53;19.10;99.90
18163;DHT22;9206;50.994;4.538;2023-09-12T03:53:43;19.00;99.90
18163;DHT22;9206;50.994;4.538;2023-09-12T03:56:32;18.90;99.90
18163;DHT22;9206;50.994;4.538;2023-09-12T03:59:26;18.90;99.90
18163;DHT22;9206;50.994;4.538;2023-09-12T04:02:26;18.90;99.90
18163;DHT22;9206;50.994;4.538;2023-09-12T04:05:14;18.90;99.90
18163;DHT22;9206;50.994;4.538;2023-09-12T04:08:05;18.90;99.90
18163;DHT22;9206;50.994;4.538;2023-09-12T04:10:54;18.90;99.90
18163;DHT22;9206;50.994;4.538;2023-09-12T04:13:45;18.80;99.90
18163;DHT22;9206;50.994;4.538;2023-09-12T04:16:39;18.80;99.90
18163;DHT22;9206;50.994;4.538;2023-09-12T04:19:31;18.80;99.90
18163;DHT22;9206;50.994;4.538;2023-09-12T04:22:25;18.70;99.90
18163;DHT22;9206;50.994;4.538;2023-09-12T04:25:20;18.70;99.90
18163;DHT22;9206;50.994;4.538;2023-09-12T04:28:10;18.70;99.90
18163;DHT22;9206;50.994;4.538;2023-09-12T04:31:04;18.70;99.90
18163;DHT22;9206;50.994;4.538;2023-09-12T04:33:55;18.70;99.90
18163;DHT22;9206;50.994;4.538;2023-09-12T04:37:00;18.70;99.90
18163;DHT22;9206;50.994;4.538;2023-09-12T04:40:11;18.70;99.90
18163;DHT22;9206;50.994;4.538;2023-09-12T04:42:58;18.70;99.90
18163;DHT22;9206;50.994;4.538;2023-09-12T04:45:52;18.60;99.90
18163;DHT22;9206;50.994;4.538;2023-09-12T04:48:42;18.60;99.90
18163;DHT22;9206;50.994;4.538;2023-09-12T04:51:32;18.60;99.90
18163;DHT22;9206;50.994;4.538;2023-09-12T04:54:24;18.60;99.90
18163;DHT22;9206;50.994;4.538;2023-09-12T04:57:13;18.50;99.90
18163;DHT22;9206;50.994;4.538;2023-09-12T05:00:00;18.50;99.90
18163;DHT22;9206;50.994;4.538;2023-09-12T05:02:48;18.50;99.90
18163;DHT22;9206;50.994;4.538;2023-09-12T05:05:35;18.60;99.90
18163;DHT22;9206;50.994;4.538;2023-09-12T05:08:25;18.60;99.90
18163;DHT22;9206;50.994;4.538;2023-09-12T05:11:15;18.60;99.90
18163;DHT22;9206;50.994;4.538;2023-09-12T05:14:09;18.60;99.90
18163;DHT22;9206;50.994;4.538;2023-09-12T05:17:03;18.50;99.90
18163;DHT22;9206;50.994;4.538;2023-09-12T05:19:56;18.50;99.90
18163;DHT22;9206;50.994;4.538;2023-09-12T05:22:47;18.40;99.90
18163;DHT22;9206;50.994;4.538;2023-09-12T05:25:34;18.40;99.90
18163;DHT22;9206;50.994;4.538;2023-09-12T05:28:29;18.40;99.90
18163;DHT22;9206;50.994;4.538;2023-09-12T05:31:16;18.40;99.90
18163;DHT22;9206;50.994;4.538;2023-09-12T05:34:04;18.30;99.90
18163;DHT22;9206;50.994;4.538;2023-09-12T05:36:52;18.30;99.90
18163;DHT22;9206;50.994;4.538;2023-09-12T05:39:40;18.30;99.90
18163;DHT22;9206;50.994;4.538;2023-09-12T05:42:29;18.30;99.90
18163;DHT22;9206;50.994;4.538;2023-09-12T05:45:23;18.30;99.90
18163;DHT22;9206;50.994;4.538;2023-09-12T05:48:14;18.20;99.90
18163;DHT22;9206;50.994;4.538;2023-09-12T05:51:01;18.30;99.90
18163;DHT22;9206;50.994;4.538;2023-09-12T05:53:50;18.40;99.90
18163;DHT22;9206;50.994;4.538;2023-09-12T05:56:41;18.30;99.90
18163;DHT22;9206;50.994;4.538;2023-09-12T05:59:37;18.30;99.90
18163;DHT22;9206;50.994;4.538;2023-09-12T06:02:29;18.30;99.90
18163;DHT22;9206;50.994;4.538;2023-09-12T06:05:19;18.40;99.90
18163;DHT22;9206;50.994;4.538;2023-09-12T06:08:07;18.40;99.90
18163;DHT22;9206;50.994;4.538;2023-09-12T06:10:55;18.50;99.90
18163;DHT22;9206;50.994;4.538;2023-09-12T06:13:44;18.70;99.90
18163;DHT22;9206;50.994;4.538;2023-09-12T06:16:38;18.90;99.90
18163;DHT22;9206;50.994;4.538;2023-09-12T06:19:32;19.20;99.90
18163;DHT22;9206;50.994;4.538;2023-09-12T06:22:21;19.40;99.90
18163;DHT22;9206;50.994;4.538;2023-09-12T06:25:09;19.80;99.90
18163;DHT22;9206;50.994;4.538;2023-09-12T06:28:03;20.30;99.90
18163;DHT22;9206;50.994;4.538;2023-09-12T06:30:57;20.70;99.90
18163;DHT22;9206;50.994;4.538;2023-09-12T06:33:47;21.00;99.90
18163;DHT22;9206;50.994;4.538;2023-09-12T06:36:41;21.50;99.90
18163;DHT22;9206;50.994;4.538;2023-09-12T06:39:31;21.80;99.90
18163;DHT22;9206;50.994;4.538;2023-09-12T06:42:21;22.10;99.90
18163;DHT22;9206;50.994;4.538;2023-09-12T06:45:09;22.30;99.90
18163;DHT22;9206;50.994;4.538;2023-09-12T06:48:03;22.60;99.90
18163;DHT22;9206;50.994;4.538;2023-09-12T06:50:57;22.80;99.90
18163;DHT22;9206;50.994;4.538;2023-09-12T06:53:51;23.10;99.90
18163;DHT22;9206;50.994;4.538;2023-09-12T06:56:44;23.50;99.90
18163;DHT22;9206;50.994;4.538;2023-09-12T06:59:35;24.00;99.90
18163;DHT22;9206;50.994;4.538;2023-09-12T07:02:24;24.60;99.90
18163;DHT22;9206;50.994;4.538;2023-09-12T07:05:12;25.10;99.90
18163;DHT22;9206;50.994;4.538;2023-09-12T07:08:06;25.40;99.90
18163;DHT22;9206;50.994;4.538;2023-09-12T07:10:59;25.90;99.90
18163;DHT22;9206;50.994;4.538;2023-09-12T07:13:51;25.90;99.90
18163;DHT22;9206;50.994;4.538;2023-09-12T07:16:38;25.40;99.90
18163;DHT22;9206;50.994;4.538;2023-09-12T07:19:26;25.40;99.90
18163;DHT22;9206;50.994;4.538;2023-09-12T07:22:17;25.50;99.90
18163;DHT22;9206;50.994;4.538;2023-09-12T07:25:07;25.60;99.90
18163;DHT22;9206;50.994;4.538;2023-09-12T07:28:04;25.00;99.90
18163;DHT22;9206;50.994;4.538;2023-09-12T07:30:57;24.40;99.90
18163;DHT22;9206;50.994;4.538;2023-09-12T07:33:51;24.00;99.90
18163;DHT22;9206;50.994;4.538;2023-09-12T07:36:44;23.50;99.90
18163;DHT22;9206;50.994;4.538;2023-09-12T07:39:33;23.00;99.90
18163;DHT22;9206;50.994;4.538;2023-09-12T07:42:22;22.80;99.90
18163;DHT22;9206;50.994;4.538;2023-09-12T07:45:11;22.50;99.90
18163;DHT22;9206;50.994;4.538;2023-09-12T07:48:06;22.40;99.90
18163;DHT22;9206;50.994;4.538;2023-09-12T07:50:57;22.50;99.90
18163;DHT22;9206;50.994;4.538;2023-09-12T07:53:45;22.60;99.90
18163;DHT22;9206;50.994;4.538;2023-09-12T07:56:34;22.80;99.90
18163;DHT22;9206;50.994;4.538;2023-09-12T07:59:24;22.80;99.90
18163;DHT22;9206;50.994;4.538;2023-09-12T08:02:16;22.80;99.90
18163;DHT22;9206;50.994;4.538;2023-09-12T08:05:07;22.90;99.90
18163;DHT22;9206;50.994;4.538;2023-09-12T08:07:55;23.00;99.90
18163;DHT22;9206;50.994;4.538;2023-09-12T08:10:44;23.30;99.90
18163;DHT22;9206;50.994;4.538;2023-09-12T08:13:32;23.50;99.90
18163;DHT22;9206;50.994;4.538;2023-09-12T08:16:19;23.50;99.90
18163;DHT22;9206;50.994;4.538;2023-09-12T08:19:15;23.90;99.90
18163;DHT22;9206;50.994;4.538;2023-09-12T08:22:09;24.50;99.90
18163;DHT22;9206;50.994;4.538;2023-09-12T08:25:03;24.70;99.90
18163;DHT22;9206;50.994;4.538;2023-09-12T08:27:57;25.10;99.90
18163;DHT22;9206;50.994;4.538;2023-09-12T08:30:48;26.40;99.90
18163;DHT22;9206;50.994;4.538;2023-09-12T08:33:39;28.20;99.90
18163;DHT22;9206;50.994;4.538;2023-09-12T08:36:33;29.40;99.90
18163;DHT22;9206;50.994;4.538;2023-09-12T08:39:38;30.20;99.90
18163;DHT22;9206;50.994;4.538;2023-09-12T08:42:31;31.30;99.90
18163;DHT22;9206;50.994;4.538;2023-09-12T08:45:21;32.20;99.90
18163;DHT22;9206;50.994;4.538;2023-09-12T08:48:11;32.80;99.90
18163;DHT22;9206;50.994;4.538;2023-09-12T08:51:04;33.70;99.90
18163;DHT22;9206;50.994;4.538;2023-09-12T08:54:01;34.30;99.90
18163;DHT22;9206;50.994;4.538;2023-09-12T08:56:51;34.80;99.90
18163;DHT22;9206;50.994;4.538;2023-09-12T08:59:43;34.90;99.90
18163;DHT22;9206;50.994;4.538;2023-09-12T09:02:34;35.30;99.90
18163;DHT22;9206;50.994;4.538;2023-09-12T09:05:21;35.50;99.90
18163;DHT22;9206;50.994;4.538;2023-09-12T09:08:09;35.40;99.90
18163;DHT22;9206;50.994;4.538;2023-09-12T09:11:01;35.90;99.90
18163;DHT22;9206;50.994;4.538;2023-09-12T09:13:49;36.60;99.90
18163;DHT22;9206;50.994;4.538;2023-09-12T09:16:43;36.70;99.90
18163;DHT22;9206;50.994;4.538;2023-09-12T09:19:44;36.50;99.90
18163;DHT22;9206;50.994;4.538;2023-09-12T09:22:35;36.20;99.90
18163;DHT22;9206;50.994;4.538;2023-09-12T09:25:25;35.50;99.90
18163;DHT22;9206;50.994;4.538;2023-09-12T09:28:21;35.50;99.90
18163;DHT22;9206;50.994;4.538;2023-09-12T09:31:16;36.50;99.90
18163;DHT22;9206;50.994;4.538;2023-09-12T09:34:10;37.00;99.90
18163;DHT22;9206;50.994;4.538;2023-09-12T09:37:03;37.80;99.90
18163;DHT22;9206;50.994;4.538;2023-09-12T09:39:58;38.00;99.90
18163;DHT22;9206;50.994;4.538;2023-09-12T09:42:45;38.30;99.90
18163;DHT22;9206;50.994;4.538;2023-09-12T09:45:43;38.10;99.90
18163;DHT22;9206;50.994;4.538;2023-09-12T09:48:33;38.10;99.90
18163;DHT22;9206;50.994;4.538;2023-09-12T09:51:23;38.00;99.90
18163;DHT22;9206;50.994;4.538;2023-09-12T09:54:13;38.40;99.90
18163;DHT22;9206;50.994;4.538;2023-09-12T09:57:04;39.00;99.90
18163;DHT22;9206;50.994;4.538;2023-09-12T09:59:54;37.90;99.90
18163;DHT22;9206;50.994;4.538;2023-09-12T10:02:49;35.90;99.90
18163;DHT22;9206;50.994;4.538;2023-09-12T10:05:37;34.70;99.90
18163;DHT22;9206;50.994;4.538;2023-09-12T10:08:32;33.50;99.90
18163;DHT22;9206;50.994;4.538;2023-09-12T10:11:23;33.20;99.90
18163;DHT22;9206;50.994;4.538;2023-09-12T10:14:11;34.20;99.90
18163;DHT22;9206;50.994;4.538;2023-09-12T10:17:01;35.50;99.90
18163;DHT22;9206;50.994;4.538;2023-09-12T10:19:56;36.30;99.90
18163;DHT22;9206;50.994;4.538;2023-09-12T10:22:52;36.90;99.90
18163;DHT22;9206;50.994;4.538;2023-09-12T10:25:43;37.30;99.90
18163;DHT22;9206;50.994;4.538;2023-09-12T10:28:40;37.70;99.90
18163;DHT22;9206;50.994;4.538;2023-09-12T10:31:35;36.40;99.90
18163;DHT22;9206;50.994;4.538;2023-09-12T10:34:30;34.70;99.90
18163;DHT22;9206;50.994;4.538;2023-09-12T10:37:26;35.00;99.90
18163;DHT22;9206;50.994;4.538;2023-09-12T10:40:20;35.40;99.90
18163;DHT22;9206;50.994;4.538;2023-09-12T10:43:11;35.20;99.90
18163;DHT22;9206;50.994;4.538;2023-09-12T10:46:05;34.20;99.90
18163;DHT22;9206;50.994;4.538;2023-09-12T10:48:55;34.00;99.90
18163;DHT22;9206;50.994;4.538;2023-09-12T10:51:54;33.40;99.90
18163;DHT22;9206;50.994;4.538;2023-09-12T10:54:45;33.70;99.90
18163;DHT22;9206;50.994;4.538;2023-09-12T10:57:33;33.40;99.90
18163;DHT22;9206;50.994;4.538;2023-09-12T11:00:21;32.40;99.90
18163;DHT22;9206;50.994;4.538;2023-09-12T11:03:42;31.70;99.90
18163;DHT22;9206;50.994;4.538;2023-09-12T11:06:30;31.20;99.90
18163;DHT22;9206;50.994;4.538;2023-09-12T11:09:22;31.40;99.90
18163;DHT22;9206;50.994;4.538;2023-09-12T11:12:35;31.60;99.90
18163;DHT22;9206;50.994;4.538;2023-09-12T11:15:25;32.50;99.90
18163;DHT22;9206;50.994;4.538;2023-09-12T11:18:14;34.00;99.90
18163;DHT22;9206;50.994;4.538;2023-09-12T11:21:02;35.30;99.90
18163;DHT22;9206;50.994;4.538;2023-09-12T11:23:54;35.80;99.90
18163;DHT22;9206;50.994;4.538;2023-09-12T11:26:58;35.00;99.90
18163;DHT22;9206;50.994;4.538;2023-09-12T11:29:50;33.70;99.90
18163;DHT22;9206;50.994;4.538;2023-09-12T11:32:38;32.70;99.90
18163;DHT22;9206;50.994;4.538;2023-09-12T11:35:27;32.50;99.90
18163;DHT22;9206;50.994;4.538;2023-09-12T11:38:26;33.40;99.90
18163;DHT22;9206;50.994;4.538;2023-09-12T11:41:38;34.80;99.90
18163;DHT22;9206;50.994;4.538;2023-09-12T11:44:32;35.70;99.90
18163;DHT22;9206;50.994;4.538;2023-09-12T11:47:27;36.90;99.90
18163;DHT22;9206;50.994;4.538;2023-09-12T11:50:29;37.40;99.90
18163;DHT22;9206;50.994;4.538;2023-09-12T11:53:20;37.50;99.90
18163;DHT22;9206;50.994;4.538;2023-09-12T11:56:10;36.80;99.90
18163;DHT22;9206;50.994;4.538;2023-09-12T11:59:03;37.10;99.90
18163;DHT22;9206;50.994;4.538;2023-09-12T12:02:06;36.30;99.90
18163;DHT22;9206;50.994;4.538;2023-09-12T12:05:01;36.00;99.90
18163;DHT22;9206;50.994;4.538;2023-09-12T12:07:53;36.70;99.90
18163;DHT22;9206;50.994;4.538;2023-09-12T12:10:49;37.30;99.90
18163;DHT22;9206;50.994;4.538;2023-09-12T12:13:39;37.60;99.90
18163;DHT22;9206;50.994;4.538;2023-09-12T12:16:28;38.10;99.90
18163;DHT22;9206;50.994;4.538;2023-09-12T12:19:18;38.30;99.90
18163;DHT22;9206;50.994;4.538;2023-09-12T12:22:11;37.70;99.90
18163;DHT22;9206;50.994;4.538;2023-09-12T12:25:05;37.00;99.90
18163;DHT22;9206;50.994;4.538;2023-09-12T12:27:53;36.70;99.90
18163;DHT22;9206;50.994;4.538;2023-09-12T12:30:46;36.90;99.90
18163;DHT22;9206;50.994;4.538;2023-09-12T12:33:37;36.90;99.90
18163;DHT22;9206;50.994;4.538;2023-09-12T12:36:25;37.20;99.90
18163;DHT22;9206;50.994;4.538;2023-09-12T12:39:14;37.60;99.90
18163;DHT22;9206;50.994;4.538;2023-09-12T12:42:06;37.50;99.90
18163;DHT22;9206;50.994;4.538;2023-09-12T12:44:55;37.20;99.90
18163;DHT22;9206;50.994;4.538;2023-09-12T12:48:01;36.40;99.90
18163;DHT22;9206;50.994;4.538;2023-09-12T12:50:51;36.50;99.90
18163;DHT22;9206;50.994;4.538;2023-09-12T12:53:42;35.60;99.90
18163;DHT22;9206;50.994;4.538;2023-09-12T12:56:33;34.30;99.90
18163;DHT22;9206;50.994;4.538;2023-09-12T12:59:27;32.90;99.90
18163;DHT22;9206;50.994;4.538;2023-09-12T13:02:21;32.10;99.90
18163;DHT22;9206;50.994;4.538;2023-09-12T13:05:20;31.60;99.90
18163;DHT22;9206;50.994;4.538;2023-09-12T13:08:11;31.20;99.90
18163;DHT22;9206;50.994;4.538;2023-09-12T13:11:01;30.50;99.90
18163;DHT22;9206;50.994;4.538;2023-09-12T13:13:53;30.00;99.90
18163;DHT22;9206;50.994;4.538;2023-09-12T13:16:43;29.90;99.90
18163;DHT22;9206;50.994;4.538;2023-09-12T13:19:34;29.70;99.90
18163;DHT22;9206;50.994;4.538;2023-09-12T13:22:23;29.70;99.90
18163;DHT22;9206;50.994;4.538;2023-09-12T13:25:16;29.80;99.90
18163;DHT22;9206;50.994;4.538;2023-09-12T13:28:09;29.60;99.90
18163;DHT22;9206;50.994;4.538;2023-09-12T13:30:59;29.40;99.90
18163;DHT22;9206;50.994;4.538;2023-09-12T13:33:48;29.60;99.90
18163;DHT22;9206;50.994;4.538;2023-09-12T13:36:38;29.40;99.90
18163;DHT22;9206;50.994;4.538;2023-09-12T13:39:27;29.20;99.90
18163;DHT22;9206;50.994;4.538;2023-09-12T13:42:16;28.80;99.90
18163;DHT22;9206;50.994;4.538;2023-09-12T13:45:06;28.50;99.90
18163;DHT22;9206;50.994;4.538;2023-09-12T13:47:55;28.20;99.90
18163;DHT22;9206;50.994;4.538;2023-09-12T13:50:48;28.10;99.90
18163;DHT22;9206;50.994;4.538;2023-09-12T13:53:42;28.00;99.90
18163;DHT22;9206;50.994;4.538;2023-09-12T13:56:35;27.60;99.90
18163;DHT22;9206;50.994;4.538;2023-09-12T13:59:23;27.50;99.90
18163;DHT22;9206;50.994;4.538;2023-09-12T14:02:15;27.50;99.90
18163;DHT22;9206;50.994;4.538;2023-09-12T14:05:06;27.50;99.90
18163;DHT22;9206;50.994;4.538;2023-09-12T14:07:55;27.50;99.90
18163;DHT22;9206;50.994;4.538;2023-09-12T14:10:51;27.50;99.90
18163;DHT22;9206;50.994;4.538;2023-09-12T14:13:44;27.40;99.90
18163;DHT22;9206;50.994;4.538;2023-09-12T14:16:32;27.30;99.90
18163;DHT22;9206;50.994;4.538;2023-09-12T14:19:19;27.20;99.90
18163;DHT22;9206;50.994;4.538;2023-09-12T14:22:11;27.00;99.90
18163;DHT22;9206;50.994;4.538;2023-09-12T14:24:59;26.90;99.90
18163;DHT22;9206;50.994;4.538;2023-09-12T14:27:47;26.70;99.90
18163;DHT22;9206;50.994;4.538;2023-09-12T14:30:35;26.70;99.90
18163;DHT22;9206;50.994;4.538;2023-09-12T14:33:24;26.70;99.90
18163;DHT22;9206;50.994;4.538;2023-09-12T14:36:17;26.60;99.90
18163;DHT22;9206;50.994;4.538;2023-09-12T14:39:09;26.50;99.90
18163;DHT22;9206;50.994;4.538;2023-09-12T14:42:01;26.50;99.90
18163;DHT22;9206;50.994;4.538;2023-09-12T14:44:54;26.50;99.90
18163;DHT22;9206;50.994;4.538;2023-09-12T14:47:45;26.50;99.90
18163;DHT22;9206;50.994;4.538;2023-09-12T14:50:33;26.50;99.90
18163;DHT22;9206;50.994;4.538;2023-09-12T14:53:27;26.50;99.90
18163;DHT22;9206;50.994;4.538;2023-09-12T14:56:16;26.60;99.90
18163;DHT22;9206;50.994;4.538;2023-09-12T14:59:04;26.60;99.90
18163;DHT22;9206;50.994;4.538;2023-09-12T15:01:58;26.60;99.90
18163;DHT22;9206;50.994;4.538;2023-09-12T15:04:48;26.60;99.90
18163;DHT22;9206;50.994;4.538;2023-09-12T15:07:42;26.60;99.90
18163;DHT22;9206;50.994;4.538;2023-09-12T15:10:51;26.60;99.90
18163;DHT22;9206;50.994;4.538;2023-09-12T15:13:43;26.50;99.90
18163;DHT22;9206;50.994;4.538;2023-09-12T15:16:32;26.40;99.90
18163;DHT22;9206;50.994;4.538;2023-09-12T15:19:20;26.40;99.90
18163;DHT22;9206;50.994;4.538;2023-09-12T15:22:13;26.40;99.90
18163;DHT22;9206;50.994;4.538;2023-09-12T15:25:02;26.30;99.90
18163;DHT22;9206;50.994;4.538;2023-09-12T15:27:49;26.30;99.90
18163;DHT22;9206;50.994;4.538;2023-09-12T15:30:38;26.30;99.90
18163;DHT22;9206;50.994;4.538;2023-09-12T15:33:26;26.20;99.90
18163;DHT22;9206;50.994;4.538;2023-09-12T15:36:13;26.20;99.90
18163;DHT22;9206;50.994;4.538;2023-09-12T15:39:01;26.10;99.90
18163;DHT22;9206;50.994;4.538;2023-09-12T15:41:49;26.00;99.90
18163;DHT22;9206;50.994;4.538;2023-09-12T15:44:37;25.90;99.90
18163;DHT22;9206;50.994;4.538;2023-09-12T15:47:29;25.70;99.90
18163;DHT22;9206;50.994;4.538;2023-09-12T15:50:16;25.50;99.90
18163;DHT22;9206;50.994;4.538;2023-09-12T15:53:05;25.40;99.90
18163;DHT22;9206;50.994;4.538;2023-09-12T15:55:56;25.40;99.90
18163;DHT22;9206;50.994;4.538;2023-09-12T15:58:46;25.20;99.90
18163;DHT22;9206;50.994;4.538;2023-09-12T16:01:36;25.10;99.90
18163;DHT22;9206;50.994;4.538;2023-09-12T16:04:28;25.00;99.90
18163;DHT22;9206;50.994;4.538;2023-09-12T16:07:21;24.90;99.90
18163;DHT22;9206;50.994;4.538;2023-09-12T16:10:10;24.90;99.90
18163;DHT22;9206;50.994;4.538;2023-09-12T16:13:00;24.90;99.90
18163;DHT22;9206;50.994;4.538;2023-09-12T16:15:48;24.70;99.90
18163;DHT22;9206;50.994;4.538;2023-09-12T16:18:35;24.60;99.90
18163;DHT22;9206;50.994;4.538;2023-09-12T16:21:25;24.60;99.90
18163;DHT22;9206;50.994;4.538;2023-09-12T16:24:12;24.50;99.90
18163;DHT22;9206;50.994;4.538;2023-09-12T16:26:59;24.40;99.90
18163;DHT22;9206;50.994;4.538;2023-09-12T16:29:48;24.30;99.90
18163;DHT22;9206;50.994;4.538;2023-09-12T16:32:37;24.30;99.90
18163;DHT22;9206;50.994;4.538;2023-09-12T16:35:26;24.20;99.90
18163;DHT22;9206;50.994;4.538;2023-09-12T16:38:17;24.20;99.90
18163;DHT22;9206;50.994;4.538;2023-09-12T16:41:07;24.10;99.90
18163;DHT22;9206;50.994;4.538;2023-09-12T16:43:57;24.00;99.90
18163;DHT22;9206;50.994;4.538;2023-09-12T16:46:46;24.00;99.90
18163;DHT22;9206;50.994;4.538;2023-09-12T16:49:35;23.90;99.90
18163;DHT22;9206;50.994;4.538;2023-09-12T16:52:30;23.90;99.90
18163;DHT22;9206;50.994;4.538;2023-09-12T16:55:25;23.70;99.90
18163;DHT22;9206;50.994;4.538;2023-09-12T16:58:13;23.70;99.90
18163;DHT22;9206;50.994;4.538;2023-09-12T17:01:07;23.60;99.90
18163;DHT22;9206;50.994;4.538;2023-09-12T17:04:00;23.60;99.90
18163;DHT22;9206;50.994;4.538;2023-09-12T17:06:49;23.60;99.90
18163;DHT22;9206;50.994;4.538;2023-09-12T17:09:42;23.50;99.90
18163;DHT22;9206;50.994;4.538;2023-09-12T17:12:37;23.40;99.90
18163;DHT22;9206;50.994;4.538;2023-09-12T17:15:27;23.40;99.90
18163;DHT22;9206;50.994;4.538;2023-09-12T17:18:21;23.40;99.90
18163;DHT22;9206;50.994;4.538;2023-09-12T17:21:08;23.40;99.90
18163;DHT22;9206;50.994;4.538;2023-09-12T17:23:57;23.40;99.90
18163;DHT22;9206;50.994;4.538;2023-09-12T17:26:48;23.30;99.90
18163;DHT22;9206;50.994;4.538;2023-09-12T17:29:39;23.20;99.90
18163;DHT22;9206;50.994;4.538;2023-09-12T17:32:43;23.20;99.90
18163;DHT22;9206;50.994;4.538;2023-09-12T17:35:33;23.10;99.90
18163;DHT22;9206;50.994;4.538;2023-09-12T17:38:21;23.00;99.90
18163;DHT22;9206;50.994;4.538;2023-09-12T17:41:14;23.00;99.90
18163;DHT22;9206;50.994;4.538;2023-09-12T17:44:02;23.00;99.90
18163;DHT22;9206;50.994;4.538;2023-09-12T17:46:55;22.90;99.90
18163;DHT22;9206;50.994;4.538;2023-09-12T17:49:44;22.80;99.90
18163;DHT22;9206;50.994;4.538;2023-09-12T17:52:35;22.70;99.90
18163;DHT22;9206;50.994;4.538;2023-09-12T17:55:25;22.70;99.90
18163;DHT22;9206;50.994;4.538;2023-09-12T17:58:13;22.60;99.90
18163;DHT22;9206;50.994;4.538;2023-09-12T18:01:07;22.60;99.90
18163;DHT22;9206;50.994;4.538;2023-09-12T18:03:56;22.50;99.90
18163;DHT22;9206;50.994;4.538;2023-09-12T18:06:43;22.40;99.90
18163;DHT22;9206;50.994;4.538;2023-09-12T18:09:34;22.40;99.90
18163;DHT22;9206;50.994;4.538;2023-09-12T18:12:31;22.40;99.90
18163;DHT22;9206;50.994;4.538;2023-09-12T18:15:25;22.30;99.90
18163;DHT22;9206;50.994;4.538;2023-09-12T18:18:13;22.30;99.90
18163;DHT22;9206;50.994;4.538;2023-09-12T18:21:02;22.30;99.90
18163;DHT22;9206;50.994;4.538;2023-09-12T18:23:51;22.30;99.90